Time;durP1;ratioP1;P1;durP2;ratioP2;P2;SDS_P1;SDS_P2;PMS_P1;PMS_P2;Temp;Humidity;BMP_temperature;BMP_pressure;BME280_temperature;BME280_humidity;BME280_pressure;Samples;Min_cycle;Max_cycle;Signal;HPM_P1;HPM_P2
2023/03/15 00:01:50;;;;;;;0.32;0.20;;;3.00;99.90;;;;;;5072659;28;20036;-72
2023/03/15 00:04:16;;;;;;;1.85;0.45;;;3.00;99.90;;;;;;5066594;28;20094;-72
2023/03/15 00:06:42;;;;;;;1.73;0.68;;;3.00;99.90;;;;;;5072532;28;20043;-72
2023/03/15 00:09:07;;;;;;;2.13;0.30;;;3.00;99.90;;;;;;5075122;28;20487;-72
2023/03/15 00:11:33;;;;;;;3.22;0.52;;;3.00;99.90;;;;;;5071609;28;20060;-72
2023/03/15 00:14:01;;;;;;;1.90;0.60;;;3.00;99.90;;;;;;5072806;28;20029;-72
2023/03/15 00:16:27;;;;;;;1.30;0.70;;;3.00;99.90;;;;;;5086867;28;20036;-72
2023/03/15 00:18:55;;;;;;;0.17;0.10;;;3.00;99.90;;;;;;5073329;28;20050;-72
2023/03/15 00:21:21;;;;;;;2.35;0.40;;;3.00;99.90;;;;;;5103051;27;20097;-72
2023/03/15 00:23:47;;;;;;;1.08;0.38;;;3.10;99.90;;;;;;5072099;28;20028;-72
2023/03/15 00:26:13;;;;;;;1.50;0.50;;;3.10;99.90;;;;;;5058081;28;20580;-72
2023/03/15 00:28:39;;;;;;;1.27;0.40;;;3.10;99.90;;;;;;5077246;28;20051;-72
2023/03/15 00:31:26;;;;;;;1.65;0.43;;;3.10;99.90;;;;;;5072573;28;20040;-72
2023/03/15 00:33:53;;;;;;;0.45;0.30;;;3.10;99.90;;;;;;5050095;28;20390;-73
2023/03/15 00:36:23;;;;;;;0.55;0.30;;;3.10;99.90;;;;;;5073489;28;20052;-72
2023/03/15 00:38:50;;;;;;;3.20;0.40;;;3.10;99.90;;;;;;5088519;28;20072;-72
2023/03/15 00:41:17;;;;;;;1.33;0.40;;;3.10;99.90;;;;;;5061233;28;20097;-72
2023/03/15 00:43:43;;;;;;;1.45;0.43;;;3.10;99.90;;;;;;5057010;28;20036;-72
2023/03/15 00:46:10;;;;;;;1.38;0.45;;;3.10;99.90;;;;;;5076926;28;20792;-72
2023/03/15 00:48:36;;;;;;;0.52;0.13;;;3.20;99.90;;;;;;5073794;28;20078;-72
2023/03/15 00:51:16;;;;;;;0.73;0.45;;;3.30;99.90;;;;;;5072455;28;20045;-72
2023/03/15 00:53:44;;;;;;;1.65;0.43;;;3.30;99.90;;;;;;5070633;28;20032;-72
2023/03/15 00:56:18;;;;;;;3.63;0.50;;;3.40;99.90;;;;;;5105879;27;20036;-72
2023/03/15 00:58:44;;;;;;;2.42;0.52;;;3.30;99.90;;;;;;5071476;28;20038;-72
2023/03/15 01:01:19;;;;;;;0.50;0.30;;;3.40;99.90;;;;;;5056870;28;20130;-72
2023/03/15 01:03:45;;;;;;;1.02;0.47;;;3.30;99.90;;;;;;5072579;28;20040;-72
2023/03/15 01:06:16;;;;;;;2.17;0.30;;;3.30;99.90;;;;;;5070687;28;20051;-72
2023/03/15 01:08:43;;;;;;;1.13;0.25;;;3.30;99.90;;;;;;5075673;28;20041;-72
2023/03/15 01:11:13;;;;;;;0.35;0.25;;;3.30;99.90;;;;;;5058597;28;20055;-72
2023/03/15 01:13:39;;;;;;;3.83;0.30;;;3.20;99.90;;;;;;5058684;28;20043;-72
2023/03/15 01:16:06;;;;;;;1.08;0.28;;;3.20;99.90;;;;;;5072570;28;20043;-72
2023/03/15 01:18:32;;;;;;;1.38;0.30;;;3.20;99.90;;;;;;5071646;28;20065;-72
2023/03/15 01:20:58;;;;;;;0.70;0.20;;;3.20;99.90;;;;;;5070157;28;20402;-72
2023/03/15 01:23:24;;;;;;;1.02;0.32;;;3.10;99.90;;;;;;5074598;28;20123;-72
2023/03/15 01:25:50;;;;;;;0.17;0.17;;;3.10;99.90;;;;;;5074294;28;20804;-72
2023/03/15 01:28:15;;;;;;;0.60;0.22;;;3.10;99.90;;;;;;5078183;28;20029;-72
2023/03/15 01:30:49;;;;;;;0.55;0.28;;;3.10;99.90;;;;;;5054199;28;20028;-73
2023/03/15 01:33:14;;;;;;;0.75;0.30;;;3.10;99.90;;;;;;5074356;28;22247;-72
2023/03/15 01:35:40;;;;;;;0.52;0.45;;;3.10;99.90;;;;;;5060371;28;20063;-72
2023/03/15 01:38:05;;;;;;;0.88;0.50;;;3.10;99.90;;;;;;5055647;28;20413;-72
2023/03/15 01:40:31;;;;;;;0.50;0.17;;;3.10;99.90;;;;;;5073739;28;20041;-72
2023/03/15 01:43:17;;;;;;;3.33;0.28;;;3.00;99.90;;;;;;5085836;28;20043;-72
2023/03/15 01:46:00;;;;;;;1.83;0.22;;;3.00;99.90;;;;;;5073406;28;20737;-72
2023/03/15 01:48:43;;;;;;;2.03;0.50;;;3.00;99.90;;;;;;5090663;28;20048;-72
2023/03/15 01:51:17;;;;;;;2.05;0.25;;;3.00;99.90;;;;;;5072796;28;20043;-72
2023/03/15 01:53:47;;;;;;;0.63;0.57;;;3.00;99.90;;;;;;5053998;28;20537;-72
2023/03/15 01:56:14;;;;;;;0.35;0.10;;;3.00;99.90;;;;;;5072984;28;20128;-72
2023/03/15 01:58:42;;;;;;;4.25;0.40;;;2.90;99.90;;;;;;5061844;28;20036;-72
2023/03/15 02:01:09;;;;;;;0.40;0.13;;;2.90;99.90;;;;;;5075541;28;20044;-72
2023/03/15 02:03:45;;;;;;;7.53;0.50;;;2.90;99.90;;;;;;5070801;28;20051;-72
2023/03/15 02:06:16;;;;;;;1.40;0.40;;;2.90;99.90;;;;;;5068656;28;20399;-72
2023/03/15 02:08:55;;;;;;;2.00;0.45;;;2.90;99.90;;;;;;5105535;27;20036;-72
2023/03/15 02:11:24;;;;;;;1.30;0.17;;;2.90;99.90;;;;;;5073186;28;20489;-72
2023/03/15 02:13:50;;;;;;;1.38;0.25;;;2.90;99.90;;;;;;5084911;28;20482;-72
2023/03/15 02:16:17;;;;;;;2.05;0.68;;;2.90;99.90;;;;;;5072912;28;20405;-72
2023/03/15 02:18:43;;;;;;;0.75;0.20;;;2.90;99.90;;;;;;5072185;28;20422;-72
2023/03/15 02:21:27;;;;;;;1.67;0.40;;;2.80;99.90;;;;;;5055596;28;20047;-72
2023/03/15 02:24:08;;;;;;;0.10;0.10;;;2.80;99.90;;;;;;5070756;28;20048;-72
2023/03/15 02:26:39;;;;;;;2.92;0.40;;;2.70;99.90;;;;;;5071653;28;20054;-72
2023/03/15 02:29:04;;;;;;;8.13;0.47;;;2.70;99.90;;;;;;5051205;28;20056;-72
2023/03/15 02:31:36;;;;;;;1.95;0.32;;;2.70;99.90;;;;;;5087929;28;20485;-72
2023/03/15 02:34:05;;;;;;;3.35;0.45;;;2.60;99.90;;;;;;5069016;28;20045;-72
2023/03/15 02:36:31;;;;;;;17.45;0.82;;;2.70;99.90;;;;;;5054882;28;20036;-72
2023/03/15 02:38:57;;;;;;;2.05;0.20;;;2.60;99.90;;;;;;5072342;28;20046;-72
2023/03/15 02:41:36;;;;;;;4.20;0.88;;;2.60;99.90;;;;;;5089791;28;20043;-72
2023/03/15 02:44:10;;;;;;;0.00;0.00;;;2.60;99.90;;;;;;5086521;28;20067;-72
2023/03/15 02:46:36;;;;;;;0.82;0.13;;;2.70;99.90;;;;;;5104307;27;20041;-72
2023/03/15 02:49:03;;;;;;;0.63;0.32;;;2.60;99.90;;;;;;5073852;28;20051;-72
2023/03/15 02:51:29;;;;;;;2.55;0.10;;;2.60;99.90;;;;;;5070188;28;20059;-72
2023/03/15 02:53:55;;;;;;;0.80;0.20;;;2.60;99.90;;;;;;5069362;28;20489;-72
2023/03/15 02:56:21;;;;;;;0.20;0.20;;;2.60;99.90;;;;;;5107584;27;20405;-72
2023/03/15 02:58:46;;;;;;;0.28;0.13;;;2.50;99.90;;;;;;5098569;27;20047;-72
2023/03/15 03:01:17;;;;;;;0.85;0.28;;;2.50;99.90;;;;;;5055196;28;20127;-72
2023/03/15 03:03:44;;;;;;;0.35;0.10;;;2.50;99.90;;;;;;5064456;28;20390;-72
2023/03/15 03:06:11;;;;;;;0.15;0.15;;;2.50;99.90;;;;;;5067067;28;20097;-72
2023/03/15 03:08:37;;;;;;;1.33;0.17;;;2.50;99.90;;;;;;5073476;28;20035;-72
2023/03/15 03:11:04;;;;;;;3.03;0.35;;;2.50;99.90;;;;;;5068806;28;20101;-72
2023/03/15 03:13:29;;;;;;;0.40;0.25;;;2.40;99.90;;;;;;5073346;28;20044;-72
2023/03/15 03:15:58;;;;;;;2.13;0.22;;;2.40;99.90;;;;;;5070016;28;20041;-72
2023/03/15 03:18:24;;;;;;;1.48;0.52;;;2.40;99.90;;;;;;5105948;27;20036;-72
2023/03/15 03:20:50;;;;;;;4.38;0.60;;;2.40;99.90;;;;;;5072431;28;20067;-72
2023/03/15 03:23:17;;;;;;;0.57;0.30;;;2.30;99.90;;;;;;5048796;28;20856;-72
2023/03/15 03:25:44;;;;;;;1.75;0.32;;;2.30;99.90;;;;;;5068480;28;20121;-72
2023/03/15 03:28:10;;;;;;;0.38;0.20;;;2.30;99.90;;;;;;5069051;28;20040;-72
2023/03/15 03:30:35;;;;;;;2.22;0.52;;;2.30;99.90;;;;;;5070198;28;20031;-72
2023/03/15 03:33:01;;;;;;;0.65;0.30;;;2.30;99.90;;;;;;5069298;28;20121;-72
2023/03/15 03:35:27;;;;;;;0.60;0.13;;;2.20;99.90;;;;;;5075223;28;20320;-72
2023/03/15 03:37:53;;;;;;;1.73;0.30;;;2.20;99.90;;;;;;5069321;28;20032;-72
2023/03/15 03:40:19;;;;;;;0.30;0.20;;;2.20;99.90;;;;;;5050842;28;20040;-72
2023/03/15 03:42:44;;;;;;;0.30;0.10;;;2.20;99.90;;;;;;5072368;28;20043;-72
2023/03/15 03:45:10;;;;;;;0.60;0.10;;;2.20;99.90;;;;;;5054065;28;20040;-72
2023/03/15 03:47:36;;;;;;;0.75;0.20;;;2.10;99.90;;;;;;5068834;28;20036;-72
2023/03/15 03:50:01;;;;;;;1.50;0.32;;;2.10;99.90;;;;;;5068875;28;20417;-72
2023/03/15 03:52:27;;;;;;;0.45;0.17;;;2.10;99.90;;;;;;5054396;28;20032;-72
2023/03/15 03:54:53;;;;;;;0.13;0.10;;;2.00;99.90;;;;;;5071282;28;20060;-72
2023/03/15 03:57:18;;;;;;;2.83;0.43;;;2.00;99.90;;;;;;5068189;28;20139;-72
2023/03/15 03:59:44;;;;;;;2.28;0.20;;;2.00;99.90;;;;;;5051560;28;20067;-72
2023/03/15 04:02:10;;;;;;;0.40;0.20;;;1.90;99.90;;;;;;5071480;28;20336;-72
2023/03/15 04:04:35;;;;;;;3.30;0.30;;;1.90;99.90;;;;;;5071586;28;20040;-72
2023/03/15 04:07:01;;;;;;;0.68;0.38;;;2.00;99.90;;;;;;5069135;28;20127;-72
2023/03/15 04:09:26;;;;;;;0.15;0.10;;;2.00;99.90;;;;;;5066155;28;20254;-72
2023/03/15 04:11:52;;;;;;;0.10;0.10;;;2.00;99.90;;;;;;5055892;28;20052;-72
2023/03/15 04:14:18;;;;;;;0.43;0.10;;;1.90;99.90;;;;;;5103700;28;20119;-72
2023/03/15 04:16:43;;;;;;;2.03;0.40;;;2.00;99.90;;;;;;5068530;28;20033;-72
2023/03/15 04:19:11;;;;;;;1.13;0.47;;;2.00;99.90;;;;;;5085575;28;20381;-73
2023/03/15 04:21:37;;;;;;;0.77;0.22;;;2.00;99.90;;;;;;5064663;28;20037;-72
2023/03/15 04:24:03;;;;;;;2.60;0.57;;;2.00;99.90;;;;;;5052660;28;20101;-72
2023/03/15 04:26:29;;;;;;;4.53;0.60;;;1.90;99.90;;;;;;5069057;28;20065;-72
2023/03/15 04:28:58;;;;;;;2.40;0.30;;;1.90;99.90;;;;;;5065801;28;20032;-72
2023/03/15 04:31:27;;;;;;;0.47;0.10;;;1.90;99.90;;;;;;5053763;28;20040;-72
2023/03/15 04:33:54;;;;;;;0.10;0.10;;;1.90;99.90;;;;;;5067037;28;20040;-72
2023/03/15 04:36:20;;;;;;;0.57;0.20;;;1.90;99.90;;;;;;5068938;28;20386;-72
2023/03/15 04:38:47;;;;;;;0.47;0.20;;;1.90;99.90;;;;;;5054453;28;20048;-72
2023/03/15 04:41:13;;;;;;;2.72;0.32;;;1.80;99.90;;;;;;5071688;28;20055;-72
2023/03/15 04:43:39;;;;;;;0.30;0.10;;;1.80;99.90;;;;;;5104457;27;20486;-72
2023/03/15 04:46:05;;;;;;;0.47;0.25;;;1.80;99.90;;;;;;5068758;28;20036;-72
2023/03/15 04:48:30;;;;;;;0.47;0.30;;;1.70;99.90;;;;;;5070917;28;20123;-72
2023/03/15 04:50:56;;;;;;;0.43;0.40;;;1.70;99.90;;;;;;5067550;28;20244;-72
2023/03/15 04:53:22;;;;;;;0.10;0.10;;;1.60;99.90;;;;;;5056392;28;20032;-72
2023/03/15 04:55:47;;;;;;;1.60;0.20;;;1.60;99.90;;;;;;5069615;28;20071;-72
2023/03/15 04:58:13;;;;;;;0.28;0.28;;;1.60;99.90;;;;;;5062016;28;20035;-72
2023/03/15 05:00:39;;;;;;;0.40;0.20;;;1.60;99.90;;;;;;5094727;28;20189;-72
2023/03/15 05:03:04;;;;;;;0.80;0.10;;;1.50;99.90;;;;;;5089221;28;20655;-72
2023/03/15 05:05:32;;;;;;;6.18;0.30;;;1.60;99.90;;;;;;5056372;28;20110;-72
2023/03/15 05:07:58;;;;;;;0.98;0.20;;;1.60;99.90;;;;;;5074633;28;20089;-72
2023/03/15 05:10:24;;;;;;;0.32;0.30;;;1.60;99.90;;;;;;5073420;28;20032;-72
2023/03/15 05:12:50;;;;;;;7.18;0.40;;;1.60;99.90;;;;;;5073208;28;20037;-72
2023/03/15 05:15:16;;;;;;;0.70;0.30;;;1.60;99.90;;;;;;5070689;28;20043;-72
2023/03/15 05:17:45;;;;;;;0.25;0.25;;;1.60;99.90;;;;;;5069074;28;20048;-72
2023/03/15 05:20:12;;;;;;;0.90;0.28;;;1.60;99.90;;;;;;5073099;28;20465;-72
2023/03/15 05:22:38;;;;;;;0.63;0.05;;;1.50;99.90;;;;;;5074837;28;20083;-72
2023/03/15 05:25:05;;;;;;;1.35;0.40;;;1.60;99.90;;;;;;5074049;28;20552;-72
2023/03/15 05:27:33;;;;;;;1.65;0.25;;;1.60;99.90;;;;;;5075521;28;20055;-72
2023/03/15 05:30:02;;;;;;;0.55;0.20;;;1.60;99.90;;;;;;5069913;28;20058;-72
2023/03/15 05:32:33;;;;;;;0.77;0.38;;;1.60;99.90;;;;;;5100234;27;20032;-72
2023/03/15 05:35:03;;;;;;;0.10;0.10;;;1.50;99.90;;;;;;5108429;27;20427;-72
2023/03/15 05:37:29;;;;;;;2.75;0.40;;;1.50;99.90;;;;;;5070582;28;20090;-72
2023/03/15 05:39:55;;;;;;;1.58;0.20;;;1.50;99.90;;;;;;5088681;28;20077;-72
2023/03/15 05:42:24;;;;;;;0.08;0.08;;;1.50;99.90;;;;;;5072791;28;20036;-72
2023/03/15 05:44:51;;;;;;;0.40;0.20;;;1.40;99.90;;;;;;5068874;28;20516;-72
2023/03/15 05:47:17;;;;;;;1.98;0.50;;;1.50;99.90;;;;;;5073383;28;20036;-71
2023/03/15 05:49:42;;;;;;;2.63;0.43;;;1.50;99.90;;;;;;5052902;28;20500;-72
2023/03/15 05:52:08;;;;;;;0.90;0.22;;;1.60;99.90;;;;;;5070640;28;20044;-72
2023/03/15 05:54:34;;;;;;;5.78;0.35;;;1.60;99.90;;;;;;5075978;28;20040;-72
2023/03/15 05:56:59;;;;;;;0.50;0.30;;;1.60;99.90;;;;;;5054458;28;20051;-72
2023/03/15 05:59:25;;;;;;;0.55;0.30;;;1.60;99.90;;;;;;5098482;27;20041;-72
2023/03/15 06:01:50;;;;;;;1.85;0.28;;;1.60;99.90;;;;;;5076402;28;20047;-75
2023/03/15 06:04:16;;;;;;;0.73;0.20;;;1.70;99.90;;;;;;5072940;28;20047;-74
2023/03/15 06:06:42;;;;;;;2.85;0.40;;;1.70;99.90;;;;;;5075259;28;20546;-74
2023/03/15 06:09:07;;;;;;;0.30;0.20;;;1.70;99.90;;;;;;5055991;28;20134;-75
2023/03/15 06:11:33;;;;;;;1.55;0.15;;;1.70;99.90;;;;;;5084558;28;20150;-72
2023/03/15 06:13:58;;;;;;;2.17;0.30;;;1.70;99.90;;;;;;5072567;28;20490;-72
2023/03/15 06:16:24;;;;;;;1.20;0.55;;;1.80;99.90;;;;;;5071406;28;20056;-72
2023/03/15 06:18:50;;;;;;;1.27;0.30;;;1.80;99.90;;;;;;5069718;28;20506;-72
2023/03/15 06:21:15;;;;;;;0.10;0.10;;;1.80;99.90;;;;;;5060389;28;20055;-72
2023/03/15 06:23:41;;;;;;;1.38;0.50;;;1.70;99.90;;;;;;5073899;28;20571;-72
2023/03/15 06:26:06;;;;;;;1.00;0.30;;;1.70;99.90;;;;;;5091612;28;20064;-72
2023/03/15 06:28:32;;;;;;;0.98;0.30;;;1.80;99.90;;;;;;5073567;28;20082;-72
2023/03/15 06:30:57;;;;;;;1.08;0.35;;;1.70;99.90;;;;;;5069928;28;20510;-72
2023/03/15 06:33:23;;;;;;;0.35;0.22;;;1.70;99.90;;;;;;5073857;28;20058;-72
2023/03/15 06:35:49;;;;;;;1.77;0.32;;;1.70;99.90;;;;;;5056218;28;20044;-72
2023/03/15 06:38:15;;;;;;;2.88;0.40;;;1.80;99.90;;;;;;5079750;28;20028;-72
2023/03/15 06:40:40;;;;;;;1.60;0.65;;;1.70;99.90;;;;;;5080026;28;20032;-72
2023/03/15 06:43:06;;;;;;;2.80;0.32;;;1.80;99.90;;;;;;5077899;28;20432;-72
2023/03/15 06:45:32;;;;;;;4.07;0.32;;;1.70;99.90;;;;;;5083125;28;20036;-72
2023/03/15 06:47:58;;;;;;;0.22;0.10;;;1.80;99.90;;;;;;5064049;28;20097;-72
2023/03/15 06:50:23;;;;;;;0.20;0.10;;;1.80;99.90;;;;;;5084408;28;20036;-74
2023/03/15 06:52:49;;;;;;;3.83;0.73;;;1.80;99.90;;;;;;5078156;28;20406;-72
2023/03/15 06:55:17;;;;;;;0.52;0.17;;;1.80;99.90;;;;;;5062030;28;20109;-72
2023/03/15 06:57:43;;;;;;;0.95;0.30;;;1.80;99.90;;;;;;5059819;28;20074;-72
2023/03/15 07:00:10;;;;;;;0.25;0.08;;;1.90;99.90;;;;;;5080616;28;20044;-72
2023/03/15 07:02:36;;;;;;;1.17;0.30;;;1.90;99.90;;;;;;5050494;28;20047;-72
2023/03/15 07:05:03;;;;;;;0.77;0.30;;;1.90;99.90;;;;;;5069607;28;20094;-72
2023/03/15 07:07:29;;;;;;;0.20;0.20;;;2.00;99.90;;;;;;5070698;28;20040;-72
2023/03/15 07:09:54;;;;;;;0.10;0.10;;;2.00;99.90;;;;;;5077799;28;20044;-72
2023/03/15 07:12:20;;;;;;;0.52;0.20;;;2.00;99.90;;;;;;5068706;28;20130;-72
2023/03/15 07:14:45;;;;;;;0.30;0.20;;;2.10;99.90;;;;;;5071331;28;20379;-72
2023/03/15 07:17:11;;;;;;;1.55;0.20;;;2.10;99.90;;;;;;5060683;28;20036;-72
2023/03/15 07:19:37;;;;;;;0.13;0.03;;;2.10;99.90;;;;;;5076986;28;20429;-72
2023/03/15 07:22:03;;;;;;;0.82;0.38;;;2.10;99.90;;;;;;5075689;28;20043;-72
2023/03/15 07:24:29;;;;;;;0.57;0.22;;;2.10;99.90;;;;;;5077177;28;20050;-72
2023/03/15 07:26:55;;;;;;;1.30;0.47;;;2.20;99.90;;;;;;5073772;28;20040;-72
2023/03/15 07:29:22;;;;;;;1.70;0.30;;;2.20;99.90;;;;;;5107184;27;20123;-72
2023/03/15 07:31:48;;;;;;;1.23;0.40;;;2.30;99.90;;;;;;5078615;28;20036;-72
2023/03/15 07:34:14;;;;;;;2.50;0.22;;;2.30;99.90;;;;;;5099773;27;20035;-72
2023/03/15 07:36:40;;;;;;;6.22;0.90;;;2.30;99.90;;;;;;5074889;28;20035;-72
2023/03/15 07:39:05;;;;;;;4.53;0.20;;;2.40;99.90;;;;;;5078797;28;20063;-72
2023/03/15 07:41:31;;;;;;;2.45;0.30;;;2.40;99.90;;;;;;5058172;28;20093;-72
2023/03/15 07:43:57;;;;;;;0.45;0.30;;;2.50;99.90;;;;;;5060552;28;20405;-72
2023/03/15 07:46:22;;;;;;;1.15;0.30;;;2.50;99.90;;;;;;5080938;28;20043;-72
2023/03/15 07:48:48;;;;;;;0.25;0.10;;;2.60;99.90;;;;;;5075807;28;20553;-71
2023/03/15 07:51:13;;;;;;;0.17;0.13;;;2.60;99.90;;;;;;5066581;28;20123;-72
2023/03/15 07:53:39;;;;;;;2.03;0.30;;;2.70;99.90;;;;;;5044240;28;20044;-72
2023/03/15 07:56:05;;;;;;;4.13;0.25;;;2.80;99.90;;;;;;5102527;27;20070;-72
2023/03/15 07:58:31;;;;;;;0.20;0.10;;;2.80;99.90;;;;;;5059203;28;20036;-72
2023/03/15 08:00:57;;;;;;;0.57;0.30;;;2.90;99.90;;;;;;5071385;28;20035;-72
2023/03/15 08:03:25;;;;;;;0.10;0.10;;;2.90;99.90;;;;;;5071195;28;20052;-72
2023/03/15 08:05:52;;;;;;;3.17;0.47;;;3.00;99.90;;;;;;5070107;28;20542;-72
2023/03/15 08:08:18;;;;;;;1.25;0.30;;;3.10;99.90;;;;;;5073202;28;20036;-72
2023/03/15 08:10:44;;;;;;;3.70;0.50;;;3.10;99.90;;;;;;5100813;28;20555;-72
2023/03/15 08:13:10;;;;;;;4.90;0.68;;;3.20;99.90;;;;;;5070465;28;20167;-72
2023/03/15 08:15:36;;;;;;;0.57;0.22;;;3.30;99.90;;;;;;5073073;28;20397;-72
2023/03/15 08:18:01;;;;;;;1.80;0.60;;;3.30;99.90;;;;;;5071981;28;20397;-72
2023/03/15 08:20:27;;;;;;;7.43;0.70;;;3.40;99.90;;;;;;5085539;28;20032;-72
2023/03/15 08:22:53;;;;;;;1.45;0.30;;;3.50;99.90;;;;;;5075166;28;20098;-72
2023/03/15 08:25:22;;;;;;;0.73;0.35;;;3.50;99.90;;;;;;5053069;28;20041;-72
2023/03/15 08:27:49;;;;;;;0.38;0.25;;;3.60;99.90;;;;;;5070449;28;20047;-72
2023/03/15 08:30:16;;;;;;;0.32;0.30;;;3.70;99.90;;;;;;5069884;28;20032;-72
2023/03/15 08:32:43;;;;;;;3.47;0.50;;;3.70;99.90;;;;;;5071256;28;20044;-72
2023/03/15 08:35:11;;;;;;;2.50;0.75;;;3.80;99.90;;;;;;5069687;28;20045;-72
2023/03/15 08:37:37;;;;;;;4.20;0.57;;;3.80;99.90;;;;;;5079416;28;20450;-72
2023/03/15 08:40:08;;;;;;;1.48;0.30;;;3.90;99.90;;;;;;5066908;28;20086;-72
2023/03/15 08:42:37;;;;;;;1.67;0.50;;;3.90;99.90;;;;;;5093474;28;20265;-72
2023/03/15 08:45:05;;;;;;;0.57;0.20;;;4.00;99.90;;;;;;5088116;28;20032;-72
2023/03/15 08:47:34;;;;;;;1.08;0.30;;;4.00;99.90;;;;;;5069613;28;20633;-72
2023/03/15 08:50:00;;;;;;;0.57;0.47;;;4.10;99.90;;;;;;5087825;28;20036;-72
2023/03/15 08:52:26;;;;;;;3.38;0.85;;;4.10;99.90;;;;;;5090120;28;20059;-72
2023/03/15 08:54:51;;;;;;;5.72;0.82;;;4.10;99.90;;;;;;5083560;28;20477;-72
2023/03/15 08:57:17;;;;;;;1.30;0.40;;;4.20;99.90;;;;;;5072331;28;20069;-72
2023/03/15 08:59:43;;;;;;;2.60;0.47;;;4.30;99.90;;;;;;5084701;28;20036;-72
2023/03/15 09:02:10;;;;;;;2.00;0.38;;;4.30;99.90;;;;;;5074210;28;20419;-72
2023/03/15 09:04:36;;;;;;;3.50;0.50;;;4.30;99.90;;;;;;5072681;28;20540;-72
2023/03/15 09:07:02;;;;;;;3.72;0.30;;;4.40;99.90;;;;;;5096201;27;20040;-72
2023/03/15 09:09:27;;;;;;;1.38;0.52;;;4.40;99.90;;;;;;5080934;28;20032;-72
2023/03/15 09:11:55;;;;;;;0.63;0.22;;;4.40;99.90;;;;;;5075638;28;20506;-72
2023/03/15 09:14:20;;;;;;;0.35;0.20;;;4.40;99.90;;;;;;5079308;28;20493;-72
2023/03/15 09:16:46;;;;;;;1.38;0.22;;;4.50;99.90;;;;;;5087626;28;20040;-72
2023/03/15 09:19:12;;;;;;;1.00;0.15;;;4.50;99.90;;;;;;5090624;28;20124;-72
2023/03/15 09:21:38;;;;;;;0.60;0.20;;;4.60;99.90;;;;;;5089224;28;20135;-72
2023/03/15 09:24:04;;;;;;;0.30;0.20;;;4.60;99.90;;;;;;5083341;28;20059;-72
2023/03/15 09:26:29;;;;;;;0.90;0.47;;;4.60;99.90;;;;;;5086599;28;20119;-72
2023/03/15 09:28:55;;;;;;;0.20;0.20;;;4.70;99.90;;;;;;5091201;28;20397;-72
2023/03/15 09:31:20;;;;;;;3.97;0.68;;;4.70;99.90;;;;;;5072156;28;20047;-72
2023/03/15 09:33:46;;;;;;;1.02;0.22;;;4.70;99.90;;;;;;5088513;28;20085;-72
2023/03/15 09:36:11;;;;;;;0.25;0.10;;;4.70;99.90;;;;;;5066450;28;20093;-72
2023/03/15 09:38:37;;;;;;;1.05;0.65;;;4.80;99.90;;;;;;5088206;28;20043;-72
2023/03/15 09:41:03;;;;;;;1.35;0.47;;;4.80;99.90;;;;;;5083165;28;20072;-72
2023/03/15 09:44:00;;;;;;;0.25;0.10;;;4.80;99.90;;;;;;5067915;28;20043;-72
2023/03/15 09:46:27;;;;;;;1.50;0.30;;;4.90;99.90;;;;;;5087065;28;20087;-72
2023/03/15 09:49:13;;;;;;;1.05;0.30;;;5.00;99.90;;;;;;5068896;28;20050;-72
2023/03/15 09:51:49;;;;;;;2.42;0.40;;;5.00;99.90;;;;;;5064710;28;20446;-72
2023/03/15 09:54:23;;;;;;;1.08;0.20;;;5.00;99.90;;;;;;5063491;28;20040;-72
2023/03/15 09:56:56;;;;;;;3.00;0.50;;;5.00;99.90;;;;;;5115231;27;20048;-72
2023/03/15 09:59:31;;;;;;;1.02;0.25;;;5.10;99.90;;;;;;5079049;28;21210;-72
2023/03/15 10:02:19;;;;;;;5.07;0.50;;;5.00;99.90;;;;;;5113906;27;20115;-72
2023/03/15 10:04:48;;;;;;;2.58;0.38;;;5.00;99.90;;;;;;5069041;28;20080;-72
2023/03/15 10:07:15;;;;;;;1.17;0.20;;;5.10;99.90;;;;;;5070457;28;20044;-72
2023/03/15 10:09:42;;;;;;;2.25;0.40;;;5.10;99.90;;;;;;5064517;28;20221;-72
2023/03/15 10:12:10;;;;;;;0.60;0.10;;;5.20;99.90;;;;;;5086213;28;20386;-72
2023/03/15 10:15:05;;;;;;;3.60;0.40;;;5.10;99.90;;;;;;5084709;28;20393;-72
2023/03/15 10:17:46;;;;;;;2.25;0.35;;;5.20;99.90;;;;;;5085717;28;20394;-72
2023/03/15 10:20:17;;;;;;;1.17;0.32;;;5.20;99.90;;;;;;5079218;28;20047;-72
2023/03/15 10:23:02;;;;;;;0.35;0.10;;;5.30;99.90;;;;;;5085497;28;20036;-72
2023/03/15 10:25:31;;;;;;;0.50;0.50;;;5.20;99.90;;;;;;5086921;28;20031;-72
2023/03/15 10:28:26;;;;;;;0.45;0.40;;;5.20;99.90;;;;;;5085889;28;20517;-72
2023/03/15 10:30:51;;;;;;;1.08;0.20;;;5.20;99.90;;;;;;5108926;27;20046;-72
2023/03/15 10:33:40;;;;;;;0.38;0.10;;;5.30;99.90;;;;;;5058657;28;20029;-72
2023/03/15 10:36:24;;;;;;;1.48;0.30;;;5.30;99.90;;;;;;5086265;28;20063;-72
2023/03/15 10:38:50;;;;;;;0.75;0.30;;;5.40;99.90;;;;;;5090578;28;20506;-72
2023/03/15 10:41:36;;;;;;;0.57;0.20;;;5.50;99.90;;;;;;5083872;28;20032;-73
2023/03/15 10:44:21;;;;;;;4.35;0.63;;;5.50;99.90;;;;;;5086462;28;20047;-72
2023/03/15 10:47:16;;;;;;;1.85;0.30;;;5.60;99.90;;;;;;5068201;28;20607;-72
2023/03/15 10:49:43;;;;;;;0.43;0.20;;;5.70;99.90;;;;;;5075135;28;20036;-72
2023/03/15 10:52:26;;;;;;;1.27;0.10;;;5.60;99.90;;;;;;5066531;28;20593;-72
2023/03/15 10:54:52;;;;;;;1.48;0.30;;;5.60;99.90;;;;;;5079827;28;20102;-72
2023/03/15 10:57:20;;;;;;;3.15;0.20;;;5.60;99.90;;;;;;5075828;28;20039;-72
2023/03/15 10:59:53;;;;;;;1.60;0.45;;;5.60;99.90;;;;;;5081538;28;20032;-72
2023/03/15 11:02:23;;;;;;;0.95;0.30;;;5.70;99.90;;;;;;5084891;28;20073;-73
2023/03/15 11:05:00;;;;;;;0.60;0.17;;;5.70;99.90;;;;;;5068652;28;20497;-72
2023/03/15 11:07:26;;;;;;;1.40;0.30;;;5.80;99.90;;;;;;5077343;28;20406;-73
2023/03/15 11:09:54;;;;;;;1.13;0.40;;;5.80;99.90;;;;;;5071758;28;20073;-72
2023/03/15 11:12:24;;;;;;;1.27;0.38;;;5.80;99.90;;;;;;5094217;28;20049;-73
2023/03/15 11:15:00;;;;;;;0.82;0.15;;;5.80;99.90;;;;;;5069655;28;20075;-73
2023/03/15 11:17:28;;;;;;;;;;;5.90;99.90;;;;;;5060208;28;20051;-73
2023/03/15 11:20:11;;;;;;;2.38;0.38;;;5.90;99.90;;;;;;5085259;28;19920;-72
2023/03/15 11:22:38;;;;;;;2.28;0.38;;;5.90;99.90;;;;;;5082893;28;20043;-73
2023/03/15 11:25:07;;;;;;;0.65;0.63;;;6.00;99.90;;;;;;5087187;28;20089;-72
2023/03/15 11:27:33;;;;;;;2.33;0.30;;;6.00;99.90;;;;;;5076119;28;20417;-72
2023/03/15 11:30:00;;;;;;;0.57;0.20;;;6.10;99.90;;;;;;5078565;28;20043;-72
2023/03/15 11:32:30;;;;;;;0.65;0.30;;;6.20;99.90;;;;;;5079225;28;20036;-73
2023/03/15 11:35:12;;;;;;;0.17;0.10;;;6.30;99.90;;;;;;5075561;28;20503;-73
2023/03/15 11:37:47;;;;;;;8.95;0.82;;;6.30;99.90;;;;;;5079693;28;20274;-73
2023/03/15 11:40:31;;;;;;;1.25;0.20;;;6.30;99.90;;;;;;5083484;28;20462;-73
2023/03/15 11:43:18;;;;;;;2.15;0.40;;;6.30;99.90;;;;;;5083813;28;20043;-73
2023/03/15 11:45:49;;;;;;;1.13;0.30;;;6.30;99.90;;;;;;5079164;28;20114;-73
2023/03/15 11:48:25;;;;;;;1.70;0.90;;;6.30;99.90;;;;;;5083849;28;20031;-73
2023/03/15 11:50:55;;;;;;;0.35;0.30;;;6.30;99.90;;;;;;5066573;28;20042;-73
2023/03/15 11:53:26;;;;;;;1.75;0.43;;;6.30;99.90;;;;;;5082591;28;20443;-73
2023/03/15 11:55:53;;;;;;;2.33;0.45;;;6.40;99.90;;;;;;5078499;28;20036;-73
2023/03/15 11:58:33;;;;;;;0.45;0.20;;;6.40;99.90;;;;;;5086124;28;20086;-73
2023/03/15 12:01:05;;;;;;;4.10;0.40;;;6.40;99.90;;;;;;5081092;28;20417;-73
2023/03/15 12:03:42;;;;;;;0.77;0.30;;;6.40;99.90;;;;;;5119671;28;20036;-73
2023/03/15 12:06:17;;;;;;;2.05;0.28;;;6.50;99.90;;;;;;5084151;28;20064;-73
2023/03/15 12:08:52;;;;;;;0.08;0.08;;;6.50;99.90;;;;;;5089909;28;20040;-73
2023/03/15 12:11:20;;;;;;;2.30;0.30;;;6.50;99.90;;;;;;5086939;28;20125;-73
2023/03/15 12:14:02;;;;;;;1.20;0.30;;;6.50;99.90;;;;;;5090716;28;20039;-73
2023/03/15 12:16:33;;;;;;;4.28;0.40;;;6.60;99.90;;;;;;5067972;28;20032;-73
2023/03/15 12:19:07;;;;;;;1.13;0.30;;;6.60;99.90;;;;;;5086502;28;20078;-73
2023/03/15 12:21:55;;;;;;;0.65;0.20;;;6.60;99.90;;;;;;5088596;28;20405;-73
2023/03/15 12:24:27;;;;;;;1.15;0.17;;;6.70;99.90;;;;;;5065794;28;20611;-73
2023/03/15 12:27:19;;;;;;;0.60;0.25;;;6.70;99.90;;;;;;5078156;28;20528;-73
2023/03/15 12:29:47;;;;;;;1.08;0.30;;;6.70;99.90;;;;;;5071598;28;20036;-73
2023/03/15 12:32:16;;;;;;;0.85;0.30;;;6.70;99.90;;;;;;5077602;28;20409;-73
2023/03/15 12:34:47;;;;;;;1.13;0.38;;;6.60;99.90;;;;;;5081209;28;20059;-73
2023/03/15 12:37:38;;;;;;;1.42;0.32;;;6.60;99.90;;;;;;5083126;28;20036;-73
2023/03/15 12:40:17;;;;;;;1.13;0.30;;;6.60;99.90;;;;;;5088259;28;20225;-73
2023/03/15 12:42:43;;;;;;;1.25;0.70;;;6.60;99.90;;;;;;5065299;28;20040;-73
2023/03/15 12:45:15;;;;;;;1.02;0.30;;;6.60;99.90;;;;;;5069429;28;20280;-72
2023/03/15 12:47:48;;;;;;;2.75;0.20;;;6.70;99.90;;;;;;5103645;27;20075;-73
2023/03/15 12:50:45;;;;;;;1.13;0.45;;;6.70;99.90;;;;;;5096784;27;20126;-73
2023/03/15 12:53:29;;;;;;;1.52;0.22;;;6.70;99.90;;;;;;5089764;28;20036;-73
2023/03/15 12:55:57;;;;;;;1.08;0.20;;;6.70;99.90;;;;;;5080785;28;20040;-72
2023/03/15 12:58:30;;;;;;;0.60;0.20;;;6.80;99.90;;;;;;5104623;27;20043;-73
2023/03/15 13:00:56;;;;;;;1.05;0.25;;;6.90;99.90;;;;;;5057503;28;20094;-73
2023/03/15 13:03:25;;;;;;;0.43;0.30;;;6.90;99.90;;;;;;5080245;28;20059;-73
2023/03/15 13:06:07;;;;;;;0.82;0.25;;;7.00;99.90;;;;;;5079088;28;20497;-73
2023/03/15 13:08:50;;;;;;;3.65;0.40;;;7.00;99.90;;;;;;5107579;27;20067;-77